Detall de PIREP

Printer-friendly versionPDF version

[2010/09/27 15:23:00]
Flight IATA:CT0001
Pilot Number:011
Company ICAO:CAT
Aircraft Type:F100/A
PAX:122
Departing Airport: LELC
Destination Airport: LEGE
Alternate Airport:LEPA
Online: VATSIM
Route:ALT B46 MITOS N609 LRD H110 MAMUK
Flight Level:FL230
No Slew and time accel
No pause
Crash detect
Detect pilot in Cockpit between each 30 and 45 minutes
15:23 Zero fuel Weight: 86761 Lbs, Fuel Weight: 11951 Lbs
15:23 VATSIM:LELC 271500Z 10006KT 050V150 9999 FEW025 24/15 Q1012 NOSIG
15:23 VATSIM:LEGE 271500Z 19010KT 9999 FEW030TCU 18/11 Q1013
15:33 Parking Brakes off
15:39 Take-off
15:39 Take off Weight: 98025 Lbs
15:39 Wind: 140º @ 006 Knots Heading: 046º
15:39 POS N37º 46´ 46´´ W000º 48´ 21´´
15:39 Flaps:2 at 163 Knots
15:39 Gear Up: 166 Knots
15:40 Flaps:1 at 181 Knots
15:40 Flaps:0 at 186 Knots
15:50 TOC
15:50 Fuel Weight: 9620 Lb
15:54 Wind:115º@024 Knots Heading: 357º Ground Speed: 458 Knots Altitude 24009 ft
16:09 Wind:204º@009 Knots Heading: 018º Ground Speed: 455 Knots Altitude 23973 ft
16:17 TOD
16:17 Fuel Weight: 7174 Lb
16:24 Wind:146º@013 Knots Heading: 042º Ground Speed: 319 Knots Altitude 12070 ft
16:39 Wind:252º@003 Knots Heading: 307º Ground Speed: 248 Knots Altitude 4944 ft
16:42 Flaps:1 at 230 Knots
16:42 Flaps:2 at 212 Knots
16:43 Flaps:3 at 191 Knots
16:43 Gear Down: 188 Knots
16:43 Flaps:4 at 161 Knots
16:46 TouchDown:Rate -224 ft/min Speed: 120 Knots
16:46 VATSIM:LEGE 271630Z 16005KT 9999 FEW030TCU SCT032 17/11 Q1014
16:46 Land
16:46 Wind:162º@005 Knots
16:46 Heading: 195º
16:46 Flight Duration: 01:07
16:46 Landing Weight: 92558 Lbs
16:46 POS N41º 54´ 10´´ E002º 45´ 40´´
16:51 Parking brakes on
16:51 Block to Block Duration: 01:18
16:51 Final Fuel: 5641 Lbls
16:51 Spent Fuel: 6309 Lbls
16:51 Flight Length: 277 NM
16:51 TOD Land Length: 132 NM

Exportar CSV

Powered by Drupal - Modified by Danger4k